CWLI

Liverpool Bay Airport

Northwest Territories, Canada
METAR CWLI 180810Z AUTO 36005KT ////SM //// OVC009 M22/M25 A2990
Observed Flight Rules
Dec-18 @ 08:10 UTC (54 minutes ago)
Wind Clouds
360° at 5 knots
  • Overcast at 900' AGL
Temperatures Readings
Current -22°C / -8°F
Dewpoint -25°C / -13°F
Humidity 77%
Altimeter 29.9" Hg
Pressure 1013 hPa
Elevation 102
METAR CWLI 180810Z AUTO 36005KT ////SM //// OVC009 M22/M25 A2990
Observed Flight Rules
Dec-18 @ 08:10 UTC
(54 minutes ago)
Wind
360° at 5 knots
Clouds
  • Overcast at 900' AGL
Temperature Dewpoint
-22°C / -8°F -25°C / -13°F
Humidity Altimeter Pressure
77% 29.9" Hg 1013 hPa